Time;durP1;ratioP1;P1;durP2;ratioP2;P2;SDS_P1;SDS_P2;PMS_P1;PMS_P2;Temp;Humidity;BMP_temperature;BMP_pressure;BME280_temperature;BME280_humidity;BME280_pressure;Samples;Min_cycle;Max_cycle;Signal;HPM_P1;HPM_P2
2022/10/21 00:00:57;;;;;;;23.07;13.70;;;15.30;99.90;;;;;;5085081;28;20291;-76
2022/10/21 00:03:24;;;;;;;25.20;13.50;;;15.20;99.90;;;;;;5090265;28;20296;-75
2022/10/21 00:05:51;;;;;;;20.50;13.67;;;15.20;99.90;;;;;;5088827;28;20437;-75
2022/10/21 00:08:17;;;;;;;27.30;14.10;;;15.20;99.90;;;;;;5090321;28;20436;-76
2022/10/21 00:10:43;;;;;;;34.20;14.17;;;15.10;99.90;;;;;;5088849;28;20500;-75
2022/10/21 00:13:08;;;;;;;23.90;14.50;;;15.10;99.90;;;;;;5089039;28;20444;-75
2022/10/21 00:15:36;;;;;;;25.00;14.60;;;15.10;99.90;;;;;;5084304;28;20172;-75
2022/10/21 00:18:01;;;;;;;28.30;14.27;;;15.00;99.90;;;;;;5074077;28;20693;-75
2022/10/21 00:20:27;;;;;;;22.60;14.13;;;15.00;99.90;;;;;;5083798;28;20484;-75
2022/10/21 00:22:52;;;;;;;27.77;15.23;;;15.20;99.90;;;;;;5082440;28;20207;-74
2022/10/21 00:25:18;;;;;;;25.10;14.13;;;15.00;99.90;;;;;;5089993;28;20167;-76
2022/10/21 00:27:44;;;;;;;22.20;14.73;;;14.90;99.90;;;;;;5083771;28;20264;-75
2022/10/21 00:30:11;;;;;;;21.23;13.57;;;15.00;99.90;;;;;;5084398;28;20205;-76
2022/10/21 00:32:37;;;;;;;30.37;14.53;;;15.00;99.90;;;;;;5086102;28;20188;-75
2022/10/21 00:35:03;;;;;;;24.40;13.83;;;15.10;99.90;;;;;;5083937;28;20979;-74
2022/10/21 00:37:29;;;;;;;19.60;13.97;;;15.10;99.90;;;;;;5084070;28;20175;-75
2022/10/21 00:39:55;;;;;;;18.93;13.47;;;15.20;99.90;;;;;;5080751;28;20494;-75
2022/10/21 00:42:22;;;;;;;23.10;14.03;;;15.10;99.90;;;;;;5082576;28;20528;-75
2022/10/21 00:45:21;;;;;;;24.90;13.83;;;15.10;99.90;;;;;;5085537;28;20198;-75
2022/10/21 00:48:18;;;;;;;19.53;13.10;;;15.10;99.90;;;;;;5065129;28;20433;-77
2022/10/21 00:51:00;;;;;;;26.13;13.80;;;15.10;99.90;;;;;;5087139;28;20946;-76
2022/10/21 00:53:26;;;;;;;24.57;14.53;;;15.10;99.90;;;;;;5086818;28;20495;-74
2022/10/21 00:55:58;;;;;;;32.20;14.37;;;15.10;99.90;;;;;;5088225;28;20424;-76
2022/10/21 00:58:27;;;;;;;28.50;15.17;;;15.10;99.90;;;;;;5085860;28;20476;-78
2022/10/21 01:00:56;;;;;;;27.23;15.80;;;15.00;99.90;;;;;;5089994;28;20540;-75
2022/10/21 01:03:24;;;;;;;32.37;15.17;;;14.90;99.90;;;;;;5084366;28;20421;-76
2022/10/21 01:05:50;;;;;;;22.47;13.90;;;14.90;99.90;;;;;;5086016;28;20586;-77
2022/10/21 01:08:15;;;;;;;21.90;13.90;;;14.80;99.90;;;;;;5085579;28;20497;-77
2022/10/21 01:10:41;;;;;;;21.90;13.43;;;14.80;99.90;;;;;;5087402;28;20481;-75
2022/10/21 01:13:14;;;;;;;22.17;13.70;;;14.70;99.90;;;;;;5083570;28;20659;-75
2022/10/21 01:16:08;;;;;;;23.50;13.60;;;14.70;99.90;;;;;;5085384;28;20184;-74
2022/10/21 01:19:00;;;;;;;22.00;13.20;;;14.80;99.90;;;;;;5085646;28;20744;-75
2022/10/21 01:21:41;;;;;;;28.83;14.60;;;14.80;99.90;;;;;;5082863;28;20441;-76
2022/10/21 01:24:25;;;;;;;23.80;12.73;;;14.90;99.90;;;;;;5074594;28;20502;-76
2022/10/21 01:27:09;;;;;;;16.00;11.87;;;14.90;99.90;;;;;;5084055;28;20453;-77
2022/10/21 01:29:58;;;;;;;21.30;13.23;;;14.90;99.90;;;;;;5083297;28;20880;-75
2022/10/21 01:32:50;;;;;;;22.07;12.80;;;14.90;99.90;;;;;;5083546;28;20437;-76
2022/10/21 01:35:20;;;;;;;28.70;13.67;;;14.80;99.90;;;;;;5077041;28;20529;-76
2022/10/21 01:38:01;;;;;;;20.40;13.67;;;14.90;99.90;;;;;;5086445;28;20427;-75
2022/10/21 01:40:55;;;;;;;24.63;13.50;;;14.80;99.90;;;;;;5082501;28;20431;-74
2022/10/21 01:43:41;;;;;;;20.93;13.13;;;14.80;99.90;;;;;;5083129;28;20540;-75
2022/10/21 01:46:13;;;;;;;22.53;13.50;;;14.80;99.90;;;;;;5082870;28;20981;-76
2022/10/21 01:48:46;;;;;;;30.63;14.70;;;15.40;99.90;;;;;;5092988;28;20827;-75
2022/10/21 01:51:12;;;;;;;29.73;15.70;;;14.70;99.90;;;;;;5085526;28;20886;-75
2022/10/21 01:53:47;;;;;;;20.17;13.83;;;14.70;99.90;;;;;;5092866;28;20519;-75
2022/10/21 01:56:16;;;;;;;22.87;13.83;;;14.60;99.90;;;;;;5089644;28;20228;-75
2022/10/21 01:58:44;;;;;;;28.43;15.07;;;14.60;99.90;;;;;;5092784;28;20406;-75
2022/10/21 02:01:12;;;;;;;21.77;14.00;;;14.60;99.90;;;;;;5091928;28;20990;-76
2022/10/21 02:03:41;;;;;;;26.50;14.37;;;14.60;99.90;;;;;;5089084;28;20456;-75
2022/10/21 02:06:06;;;;;;;31.63;13.60;;;14.50;99.90;;;;;;5090723;28;20448;-75
2022/10/21 02:08:32;;;;;;;27.43;13.60;;;14.50;99.90;;;;;;5090882;28;20418;-73
2022/10/21 02:11:02;;;;;;;27.90;14.30;;;14.50;99.90;;;;;;5090329;28;20196;-74
2022/10/21 02:13:40;;;;;;;21.73;13.43;;;14.50;99.90;;;;;;5090724;28;20421;-76
2022/10/21 02:16:09;;;;;;;26.87;14.67;;;14.50;99.90;;;;;;5083943;28;20457;-76
2022/10/21 02:18:35;;;;;;;25.70;14.93;;;14.50;99.90;;;;;;5092360;28;20402;-75
2022/10/21 02:21:05;;;;;;;34.83;15.13;;;14.50;99.90;;;;;;5084066;28;20441;-78
2022/10/21 02:23:38;;;;;;;21.33;14.10;;;14.60;99.90;;;;;;5092133;28;20240;-74
2022/10/21 02:26:04;;;;;;;21.70;13.47;;;14.60;99.90;;;;;;5085925;28;20652;-74
2022/10/21 02:28:30;;;;;;;23.00;13.87;;;14.60;99.90;;;;;;5090986;28;20418;-74
2022/10/21 02:31:05;;;;;;;19.00;13.20;;;14.60;99.90;;;;;;5090363;28;20529;-74
2022/10/21 02:34:16;;;;;;;20.97;13.23;;;14.60;99.90;;;;;;5091595;28;20417;-75
2022/10/21 02:36:56;;;;;;;24.40;13.90;;;14.60;99.90;;;;;;5074354;28;20473;-75
2022/10/21 02:39:37;;;;;;;20.70;13.70;;;14.60;99.90;;;;;;5086025;28;20423;-74
2022/10/21 02:42:09;;;;;;;27.13;13.47;;;15.00;99.90;;;;;;5085750;28;20433;-74
2022/10/21 02:44:34;;;;;;;23.07;12.50;;;14.60;99.90;;;;;;5083074;28;20422;-73
2022/10/21 02:47:01;;;;;;;30.43;14.00;;;14.60;99.90;;;;;;5090296;28;20951;-74
2022/10/21 02:49:27;;;;;;;28.67;13.90;;;14.70;99.90;;;;;;5089506;28;20211;-74
2022/10/21 02:51:52;;;;;;;27.27;14.00;;;14.70;99.90;;;;;;5091039;28;20477;-74
2022/10/21 02:54:18;;;;;;;23.50;13.40;;;14.70;99.90;;;;;;5088452;28;20187;-73
2022/10/21 02:56:43;;;;;;;26.40;14.30;;;14.70;99.90;;;;;;5089611;28;20164;-77
2022/10/21 02:59:09;;;;;;;25.57;13.83;;;14.70;99.90;;;;;;5087696;28;20168;-76
2022/10/21 03:01:34;;;;;;;23.40;14.33;;;14.70;99.90;;;;;;5085955;28;20203;-78
2022/10/21 03:04:00;;;;;;;26.40;13.70;;;14.80;99.90;;;;;;5091425;28;20267;-75
2022/10/21 03:06:25;;;;;;;19.70;12.50;;;14.80;99.90;;;;;;5088676;28;20184;-74
2022/10/21 03:08:51;;;;;;;22.37;13.47;;;14.70;99.90;;;;;;5091536;28;20171;-75
2022/10/21 03:11:16;;;;;;;30.90;13.97;;;14.70;99.90;;;;;;5086285;28;20212;-75
2022/10/21 03:13:42;;;;;;;24.70;12.97;;;14.70;99.90;;;;;;5091142;28;20549;-75
2022/10/21 03:16:07;;;;;;;23.03;12.13;;;14.70;99.90;;;;;;5087329;28;20179;-75
2022/10/21 03:18:33;;;;;;;21.20;11.57;;;14.70;99.90;;;;;;5091307;28;20233;-75
2022/10/21 03:20:58;;;;;;;22.37;12.30;;;14.70;99.90;;;;;;5088364;28;20204;-76
2022/10/21 03:23:24;;;;;;;20.73;12.70;;;14.70;99.90;;;;;;5091166;28;20180;-75
2022/10/21 03:25:50;;;;;;;19.80;12.60;;;15.10;99.90;;;;;;5090079;28;20187;-73
2022/10/21 03:28:15;;;;;;;23.37;12.63;;;14.70;99.90;;;;;;5090909;28;20275;-76
2022/10/21 03:30:41;;;;;;;23.20;12.13;;;14.70;99.90;;;;;;5083515;28;20216;-74
2022/10/21 03:33:06;;;;;;;26.07;12.13;;;14.70;99.90;;;;;;5089116;28;20182;-74
2022/10/21 03:35:32;;;;;;;25.53;11.47;;;14.70;99.90;;;;;;5086121;28;20731;-75
2022/10/21 03:37:57;;;;;;;22.83;11.40;;;14.80;99.90;;;;;;5089660;28;20239;-74
2022/10/21 03:40:28;;;;;;;18.67;11.77;;;14.80;99.90;;;;;;5088597;28;20257;-74
2022/10/21 03:42:55;;;;;;;22.93;11.17;;;14.80;99.90;;;;;;5090587;28;20549;-76
2022/10/21 03:45:20;;;;;;;19.80;11.27;;;14.90;99.90;;;;;;5086493;28;20429;-77
2022/10/21 03:47:46;;;;;;;19.83;11.10;;;14.90;99.90;;;;;;5090031;28;20426;-75
2022/10/21 03:50:11;;;;;;;23.43;11.53;;;14.90;99.90;;;;;;5085965;28;20681;-75
2022/10/21 03:52:37;;;;;;;19.90;11.23;;;14.90;99.90;;;;;;5087477;28;20571;-75
2022/10/21 03:55:02;;;;;;;22.40;11.40;;;14.80;99.90;;;;;;5087423;28;20211;-75
2022/10/21 03:57:28;;;;;;;16.90;11.23;;;14.90;99.90;;;;;;5089297;28;20542;-76
2022/10/21 03:59:53;;;;;;;18.30;10.20;;;14.90;99.90;;;;;;5086022;28;20263;-77
2022/10/21 04:02:19;;;;;;;17.40;11.00;;;14.80;98.70;;;;;;5090018;28;20687;-76
2022/10/21 04:04:44;;;;;;;19.60;12.00;;;14.80;99.20;;;;;;5088217;28;20175;-74
2022/10/21 04:07:10;;;;;;;18.33;11.93;;;14.90;99.90;;;;;;5083479;28;20188;-76
2022/10/21 04:09:35;;;;;;;18.47;11.53;;;14.90;99.90;;;;;;5087243;28;20516;-76
2022/10/21 04:12:01;;;;;;;20.73;11.50;;;14.80;99.60;;;;;;5081838;28;20295;-74
2022/10/21 04:14:27;;;;;;;25.33;11.73;;;14.90;98.40;;;;;;5088532;28;20194;-76
2022/10/21 04:16:52;;;;;;;17.83;10.40;;;14.90;96.80;;;;;;5087621;28;20175;-75
2022/10/21 04:19:18;;;;;;;19.83;11.67;;;14.90;97.20;;;;;;5087917;28;20187;-74
2022/10/21 04:21:45;;;;;;;21.53;11.97;;;14.90;99.90;;;;;;5094605;28;20211;-76
2022/10/21 04:24:11;;;;;;;20.50;12.00;;;14.80;99.90;;;;;;5088982;28;20429;-76
2022/10/21 04:26:37;;;;;;;19.83;11.80;;;15.00;99.90;;;;;;5090248;28;20418;-74
2022/10/21 04:29:03;;;;;;;17.47;11.87;;;14.90;99.90;;;;;;5086973;28;20445;-75
2022/10/21 04:31:28;;;;;;;21.33;11.23;;;14.90;99.90;;;;;;5085310;28;20721;-77
2022/10/21 04:33:54;;;;;;;21.93;12.70;;;14.90;98.10;;;;;;5088592;28;20441;-75
2022/10/21 04:36:20;;;;;;;28.57;12.80;;;14.90;99.90;;;;;;5086855;28;20183;-75
2022/10/21 04:38:45;;;;;;;21.57;11.80;;;14.80;99.90;;;;;;5086877;28;20638;-75
2022/10/21 04:41:11;;;;;;;22.30;12.20;;;14.80;99.90;;;;;;5087636;28;20442;-77
2022/10/21 04:43:37;;;;;;;16.90;11.70;;;14.80;99.90;;;;;;5086824;28;20658;-75
2022/10/21 04:46:03;;;;;;;30.00;12.10;;;14.70;99.90;;;;;;5080322;28;20681;-76
2022/10/21 04:48:28;;;;;;;23.40;12.90;;;14.70;99.90;;;;;;5088775;28;20658;-74
2022/10/21 04:50:54;;;;;;;19.63;10.60;;;14.70;99.90;;;;;;5081427;28;20485;-75
2022/10/21 04:53:21;;;;;;;18.73;10.10;;;16.50;99.60;;;;;;5084274;28;20233;-76
2022/10/21 04:55:52;;;;;;;20.33;10.17;;;14.70;97.80;;;;;;5086962;28;20519;-75
2022/10/21 04:58:19;;;;;;;14.33;9.50;;;14.80;93.90;;;;;;5085587;28;20437;-76
2022/10/21 05:00:45;;;;;;;15.80;9.90;;;15.00;92.80;;;;;;5080415;28;20461;-75
2022/10/21 05:03:10;;;;;;;18.13;10.47;;;15.10;93.10;;;;;;5088645;28;20425;-75
2022/10/21 05:05:36;;;;;;;15.40;9.90;;;15.20;91.30;;;;;;5094175;28;20270;-75
2022/10/21 05:08:01;;;;;;;18.80;10.07;;;16.40;90.70;;;;;;5088316;28;20191;-76
2022/10/21 05:10:29;;;;;;;18.70;10.10;;;15.30;92.00;;;;;;5088542;28;20196;-75
2022/10/21 05:12:56;;;;;;;16.10;9.60;;;15.30;90.30;;;;;;5085823;28;20570;-75
2022/10/21 05:15:21;;;;;;;19.23;9.40;;;15.40;85.70;;;;;;5086262;28;20414;-76
2022/10/21 05:17:47;;;;;;;25.30;9.83;;;15.40;83.40;;;;;;5088847;28;20896;-75
2022/10/21 05:20:12;;;;;;;17.00;9.50;;;15.50;79.90;;;;;;5088967;28;20677;-75
2022/10/21 05:22:38;;;;;;;16.30;8.50;;;15.50;78.90;;;;;;5085227;28;20300;-75
2022/10/21 05:25:04;;;;;;;25.47;9.90;;;15.60;69.80;;;;;;5088859;28;20198;-75
2022/10/21 05:27:29;;;;;;;17.30;10.23;;;15.70;74.40;;;;;;5081935;28;20183;-75
2022/10/21 05:29:57;;;;;;;17.97;9.30;;;16.80;70.50;;;;;;5084081;28;20253;-76
2022/10/21 05:32:23;;;;;;;20.27;9.83;;;15.80;66.90;;;;;;5087326;28;20223;-76
2022/10/21 05:34:48;;;;;;;14.47;9.33;;;15.80;69.70;;;;;;5083360;28;20465;-76
2022/10/21 05:37:14;;;;;;;15.37;9.50;;;15.80;66.70;;;;;;5089071;28;20265;-76
2022/10/21 05:39:39;;;;;;;13.40;8.80;;;15.80;67.50;;;;;;5088406;28;20241;-73
2022/10/21 05:42:05;;;;;;;15.00;9.57;;;15.70;64.10;;;;;;5082854;28;20204;-76
2022/10/21 05:44:30;;;;;;;19.10;9.37;;;15.80;71.10;;;;;;5088159;28;20218;-79
2022/10/21 05:46:56;;;;;;;12.60;8.70;;;15.70;77.60;;;;;;5088437;28;20266;-79
2022/10/21 05:49:21;;;;;;;18.13;8.73;;;15.70;82.10;;;;;;5088271;28;20266;-77
2022/10/21 05:51:47;;;;;;;19.27;8.83;;;15.90;74.00;;;;;;5085479;28;20215;-79
2022/10/21 05:54:12;;;;;;;16.90;8.27;;;15.90;73.90;;;;;;5089192;28;20182;-77
2022/10/21 05:56:38;;;;;;;21.10;8.70;;;15.90;70.10;;;;;;5084135;28;20230;-78
2022/10/21 05:59:03;;;;;;;13.73;8.00;;;15.90;73.80;;;;;;5080822;28;20683;-75
2022/10/21 06:01:29;;;;;;;12.50;8.47;;;16.00;74.90;;;;;;5082126;28;20242;-76
2022/10/21 06:03:54;;;;;;;12.97;8.33;;;16.00;73.50;;;;;;5077075;28;20194;-77
2022/10/21 06:06:20;;;;;;;15.47;8.43;;;16.00;72.00;;;;;;5087703;28;20639;-75
2022/10/21 06:08:45;;;;;;;15.87;8.73;;;16.10;75.60;;;;;;5085610;28;20233;-76
2022/10/21 06:11:15;;;;;;;15.43;8.63;;;16.10;77.40;;;;;;5077823;28;20246;-74
2022/10/21 06:13:41;;;;;;;15.50;8.43;;;16.10;77.30;;;;;;5085316;28;20585;-78
2022/10/21 06:16:08;;;;;;;24.63;9.03;;;16.10;80.40;;;;;;5084668;28;20876;-78
2022/10/21 06:18:33;;;;;;;12.63;9.30;;;16.10;81.20;;;;;;5085898;28;20502;-79
2022/10/21 06:20:59;;;;;;;18.40;9.17;;;16.20;76.10;;;;;;5080466;28;20516;-76
2022/10/21 06:23:25;;;;;;;16.40;8.00;;;16.10;77.70;;;;;;5089321;28;20199;-76
2022/10/21 06:25:58;;;;;;;20.27;8.23;;;16.10;75.70;;;;;;5079484;28;20679;-76
2022/10/21 06:28:24;;;;;;;16.87;8.67;;;16.10;76.30;;;;;;5085276;28;20183;-75
2022/10/21 06:30:50;;;;;;;21.50;9.23;;;16.00;72.80;;;;;;5082949;28;20473;-76
2022/10/21 06:33:16;;;;;;;22.20;9.60;;;15.90;82.80;;;;;;5090193;28;20485;-76
2022/10/21 06:35:41;;;;;;;19.23;9.10;;;15.70;90.10;;;;;;5090701;28;20262;-74
2022/10/21 06:38:07;;;;;;;19.43;9.67;;;15.60;93.10;;;;;;5089813;28;20168;-73
2022/10/21 06:40:32;;;;;;;17.13;8.90;;;15.50;95.10;;;;;;5091264;28;20175;-75
2022/10/21 06:42:58;;;;;;;16.17;9.17;;;15.50;96.40;;;;;;5092453;28;20710;-75
2022/10/21 06:45:23;;;;;;;17.97;9.03;;;15.40;98.40;;;;;;5088317;28;20184;-74
2022/10/21 06:47:49;;;;;;;18.17;9.93;;;15.40;99.90;;;;;;5087553;28;20172;-75
2022/10/21 06:50:14;;;;;;;25.63;11.03;;;15.40;99.90;;;;;;5079641;28;20673;-76
2022/10/21 06:52:40;;;;;;;16.00;9.63;;;15.50;99.90;;;;;;5092584;28;20346;-74
2022/10/21 06:55:06;;;;;;;15.27;9.93;;;15.40;99.90;;;;;;5092411;28;20175;-74
2022/10/21 06:57:32;;;;;;;16.00;10.97;;;15.40;99.90;;;;;;5092282;28;20172;-76
2022/10/21 06:59:58;;;;;;;23.20;11.30;;;15.50;99.90;;;;;;5080320;28;20803;-74
2022/10/21 07:02:23;;;;;;;21.20;11.17;;;15.50;99.10;;;;;;5091431;28;20240;-75
2022/10/21 07:04:51;;;;;;;20.40;10.67;;;15.50;99.90;;;;;;5088720;28;20171;-74
2022/10/21 07:07:17;;;;;;;24.90;10.77;;;15.50;99.90;;;;;;5089520;28;20254;-75
2022/10/21 07:09:43;;;;;;;25.00;10.57;;;15.50;99.90;;;;;;5091777;28;20504;-74
2022/10/21 07:12:09;;;;;;;18.13;10.43;;;15.40;98.70;;;;;;5089578;28;20599;-76
2022/10/21 07:14:34;;;;;;;18.70;10.93;;;15.50;99.90;;;;;;5088532;28;20609;-79
2022/10/21 07:17:00;;;;;;;19.37;11.30;;;15.50;99.90;;;;;;5092138;28;20251;-76
2022/10/21 07:19:26;;;;;;;26.67;12.33;;;15.50;99.90;;;;;;5091877;28;20220;-77
2022/10/21 07:21:51;;;;;;;18.77;10.57;;;15.60;99.90;;;;;;5090276;28;20200;-74
2022/10/21 07:24:17;;;;;;;19.20;10.67;;;15.70;99.90;;;;;;5093373;28;20497;-75
2022/10/21 07:26:42;;;;;;;16.90;10.47;;;15.70;99.90;;;;;;5090769;28;20174;-77
2022/10/21 07:29:08;;;;;;;22.73;11.87;;;15.60;99.90;;;;;;5090248;28;20273;-77
2022/10/21 07:31:36;;;;;;;21.77;11.23;;;15.70;99.90;;;;;;5089786;28;20723;-75
2022/10/21 07:34:03;;;;;;;24.33;11.83;;;15.70;99.90;;;;;;5070215;28;20172;-77
2022/10/21 07:36:31;;;;;;;18.97;11.23;;;15.80;99.90;;;;;;5071502;28;20395;-73
2022/10/21 07:38:59;;;;;;;20.47;11.80;;;15.80;99.90;;;;;;5088012;28;20999;-74
2022/10/21 07:41:28;;;;;;;17.80;11.13;;;15.80;99.90;;;;;;5094490;28;20436;-74
2022/10/21 07:43:54;;;;;;;27.47;12.50;;;15.80;99.90;;;;;;5098763;28;20760;-76
2022/10/21 07:46:20;;;;;;;24.47;13.10;;;15.80;99.90;;;;;;5089693;28;20449;-75
2022/10/21 07:48:47;;;;;;;23.73;13.30;;;15.80;99.90;;;;;;5091549;28;20207;-75
2022/10/21 07:51:14;;;;;;;22.50;12.20;;;15.80;99.90;;;;;;5091496;28;20449;-75
2022/10/21 07:53:41;;;;;;;22.30;12.63;;;15.80;99.90;;;;;;5091957;28;20436;-77
2022/10/21 07:56:15;;;;;;;22.57;12.30;;;15.70;99.90;;;;;;5090645;28;20428;-75
2022/10/21 07:58:41;;;;;;;27.23;12.40;;;15.70;99.90;;;;;;5098571;28;20543;-74
2022/10/21 08:01:08;;;;;;;28.97;13.33;;;15.70;99.90;;;;;;5111010;27;20456;-74
2022/10/21 08:03:34;;;;;;;24.53;12.90;;;15.70;99.90;;;;;;5095376;28;20445;-75
2022/10/21 08:06:00;;;;;;;22.73;12.00;;;15.70;99.90;;;;;;5083131;28;20410;-74
2022/10/21 08:08:26;;;;;;;25.00;13.10;;;15.70;99.90;;;;;;5091181;28;20228;-75
2022/10/21 08:10:53;;;;;;;22.07;12.67;;;15.70;99.90;;;;;;5089695;28;20288;-78
2022/10/21 08:13:19;;;;;;;18.80;11.10;;;15.80;99.90;;;;;;5090949;28;20453;-74
2022/10/21 08:15:46;;;;;;;21.30;10.43;;;15.80;99.90;;;;;;5092446;28;20422;-75
2022/10/21 08:18:13;;;;;;;18.73;10.70;;;15.80;99.90;;;;;;5091158;28;20487;-75
2022/10/21 08:20:40;;;;;;;22.30;12.00;;;15.80;99.90;;;;;;5089463;28;20417;-75
2022/10/21 08:23:06;;;;;;;27.17;16.80;;;15.80;99.90;;;;;;5090679;28;20412;-76
2022/10/21 08:25:32;;;;;;;27.70;14.63;;;15.90;99.90;;;;;;5090084;28;20851;-75
2022/10/21 08:27:58;;;;;;;20.40;13.20;;;15.90;99.90;;;;;;5097757;28;20417;-76
2022/10/21 08:30:28;;;;;;;27.97;12.97;;;15.90;99.90;;;;;;5089794;28;20449;-74
2022/10/21 08:32:54;;;;;;;21.33;10.87;;;15.90;99.90;;;;;;5099726;28;20171;-75
2022/10/21 08:35:20;;;;;;;21.87;11.00;;;16.00;99.90;;;;;;5107190;28;20462;-75
2022/10/21 08:37:47;;;;;;;20.57;11.53;;;16.00;99.90;;;;;;5090894;28;20426;-77
2022/10/21 08:40:13;;;;;;;34.13;11.77;;;16.00;99.90;;;;;;5090808;28;20229;-75
2022/10/21 08:42:41;;;;;;;31.03;14.77;;;16.10;99.90;;;;;;5089062;28;20450;-76
2022/10/21 08:45:34;;;;;;;33.70;19.33;;;16.10;99.90;;;;;;5087830;28;20176;-74
2022/10/21 08:48:04;;;;;;;19.10;10.93;;;16.10;99.90;;;;;;5090262;28;21017;-75
2022/10/21 08:50:37;;;;;;;25.17;14.00;;;16.20;99.90;;;;;;5093265;28;20544;-76
2022/10/21 08:53:22;;;;;;;25.43;11.80;;;16.20;99.90;;;;;;5087998;28;20422;-74
2022/10/21 08:55:48;;;;;;;15.40;9.57;;;16.10;99.90;;;;;;5089439;28;20433;-78
2022/10/21 08:58:23;;;;;;;17.87;9.20;;;16.10;99.90;;;;;;5089457;28;20418;-76
2022/10/21 09:01:01;;;;;;;17.50;10.07;;;16.10;99.90;;;;;;5088005;28;20520;-74
2022/10/21 09:03:32;;;;;;;22.23;9.60;;;16.00;99.90;;;;;;5089238;28;20436;-76
2022/10/21 09:06:14;;;;;;;19.33;8.77;;;16.00;99.90;;;;;;5084834;28;20429;-75
2022/10/21 09:08:47;;;;;;;18.73;9.70;;;16.00;99.90;;;;;;5089756;28;20500;-74
2022/10/21 09:11:25;;;;;;;16.33;8.10;;;16.00;99.90;;;;;;5089004;28;20461;-75
2022/10/21 09:14:19;;;;;;;17.00;7.73;;;16.00;99.90;;;;;;5088082;28;20429;-75
2022/10/21 09:17:27;;;;;;;13.53;7.13;;;15.90;99.90;;;;;;5087157;28;20422;-74
2022/10/21 09:20:00;;;;;;;19.20;8.10;;;15.90;99.90;;;;;;5089382;28;20501;-76
2022/10/21 09:22:34;;;;;;;16.70;9.00;;;15.90;99.90;;;;;;5089222;28;20505;-76
2022/10/21 09:25:31;;;;;;;23.13;7.53;;;16.00;99.90;;;;;;5107243;28;20452;-75
2022/10/21 09:27:58;;;;;;;13.00;7.83;;;16.00;99.90;;;;;;5084599;28;20839;-75
2022/10/21 09:30:24;;;;;;;13.50;7.07;;;16.00;99.90;;;;;;5086106;28;20930;-77
2022/10/21 09:32:55;;;;;;;15.20;7.03;;;16.00;99.90;;;;;;5087101;28;20420;-77
2022/10/21 09:35:45;;;;;;;16.63;6.87;;;16.10;99.90;;;;;;5089175;28;20498;-74
2022/10/21 09:38:24;;;;;;;10.77;6.10;;;16.20;99.90;;;;;;5088058;28;20413;-75
2022/10/21 09:40:58;;;;;;;14.63;6.60;;;16.40;99.90;;;;;;5098054;28;20528;-76
2022/10/21 09:43:25;;;;;;;13.87;6.13;;;16.40;99.90;;;;;;5092912;28;20950;-75
2022/10/21 09:45:51;;;;;;;13.77;5.20;;;16.40;99.90;;;;;;5084642;28;20423;-76
2022/10/21 09:48:16;;;;;;;11.60;5.93;;;16.40;99.90;;;;;;5088201;28;20924;-77
2022/10/21 09:50:47;;;;;;;9.03;5.83;;;16.50;99.90;;;;;;5089060;28;20283;-74
2022/10/21 09:53:34;;;;;;;14.77;5.90;;;16.50;99.90;;;;;;5088945;28;20175;-74
2022/10/21 09:56:13;;;;;;;10.57;5.30;;;16.50;99.90;;;;;;5089111;28;20418;-73
2022/10/21 09:58:42;;;;;;;9.33;5.23;;;16.40;99.90;;;;;;5089873;28;20433;-76
2022/10/21 10:01:13;;;;;;;7.43;4.70;;;16.40;99.90;;;;;;5084472;28;20445;-74
2022/10/21 10:03:45;;;;;;;13.80;4.80;;;16.40;99.90;;;;;;5086694;28;20730;-74
2022/10/21 10:06:11;;;;;;;6.80;3.97;;;16.30;99.90;;;;;;5087965;28;20492;-75
2022/10/21 10:08:43;;;;;;;10.20;5.17;;;16.30;99.90;;;;;;5092701;28;20443;-74
2022/10/21 10:11:08;;;;;;;8.70;4.27;;;16.30;99.90;;;;;;5092978;28;20457;-74
2022/10/21 10:13:40;;;;;;;8.50;4.60;;;16.20;99.90;;;;;;5089273;28;20451;-76
2022/10/21 10:16:14;;;;;;;7.93;3.93;;;16.30;99.90;;;;;;5091766;28;20172;-75
2022/10/21 10:18:41;;;;;;;11.67;4.10;;;16.30;99.90;;;;;;5090094;28;20433;-75
2022/10/21 10:21:15;;;;;;;6.23;4.13;;;16.30;99.90;;;;;;5091422;28;20445;-76
2022/10/21 10:23:52;;;;;;;11.30;4.83;;;16.30;99.90;;;;;;5093088;28;20412;-75
2022/10/21 10:26:37;;;;;;;12.20;4.77;;;16.40;99.90;;;;;;5090459;28;20452;-76
2022/10/21 10:29:29;;;;;;;8.70;4.30;;;16.40;99.90;;;;;;5072058;28;20430;-73
2022/10/21 10:31:58;;;;;;;8.00;4.30;;;16.40;99.90;;;;;;5095461;28;21015;-76
2022/10/21 10:34:36;;;;;;;8.10;4.30;;;16.50;99.90;;;;;;5091414;28;20424;-76
2022/10/21 10:37:17;;;;;;;8.90;4.43;;;16.50;99.90;;;;;;5086755;28;20920;-76
2022/10/21 10:39:47;;;;;;;6.40;3.90;;;16.60;99.90;;;;;;5085535;28;20479;-73
2022/10/21 10:42:18;;;;;;;7.83;4.40;;;16.60;99.90;;;;;;5090317;28;20516;-75
2022/10/21 10:44:44;;;;;;;9.07;4.27;;;16.70;99.90;;;;;;5089190;28;20421;-78
2022/10/21 10:47:27;;;;;;;11.10;4.70;;;16.80;99.90;;;;;;5089932;28;20574;-74
2022/10/21 10:49:53;;;;;;;7.57;4.07;;;16.70;99.90;;;;;;5092583;28;20360;-76
2022/10/21 10:52:22;;;;;;;11.97;4.90;;;16.70;99.90;;;;;;5088974;28;21066;-75
2022/10/21 10:55:11;;;;;;;8.40;4.50;;;16.70;99.90;;;;;;5089942;28;20208;-77
2022/10/21 10:57:39;;;;;;;19.67;4.53;;;16.80;99.90;;;;;;5071720;28;20446;-76
2022/10/21 11:00:21;;;;;;;7.20;4.40;;;16.90;99.90;;;;;;5089405;28;20472;-74
2022/10/21 11:02:50;;;;;;;6.90;4.10;;;17.00;99.90;;;;;;5085611;28;20430;-74
2022/10/21 11:05:50;;;;;;;7.60;4.30;;;17.10;99.90;;;;;;5092136;28;20417;-74
2022/10/21 11:08:29;;;;;;;8.40;3.87;;;17.10;99.90;;;;;;5081812;28;20463;-74
2022/10/21 11:11:05;;;;;;;6.53;3.70;;;17.20;99.90;;;;;;5088633;28;20465;-75
2022/10/21 11:13:33;;;;;;;6.43;3.40;;;17.10;99.90;;;;;;5090172;28;20460;-74
2022/10/21 11:16:20;;;;;;;6.17;3.90;;;17.10;99.90;;;;;;5090626;28;21091;-75
2022/10/21 11:18:58;;;;;;;7.33;3.67;;;17.10;99.90;;;;;;5090753;28;20406;-77
2022/10/21 11:21:51;;;;;;;6.87;3.60;;;17.30;99.90;;;;;;5078531;28;20462;-75
2022/10/21 11:24:39;;;;;;;5.60;3.53;;;17.40;99.90;;;;;;5085973;28;20433;-75
2022/10/21 11:27:23;;;;;;;7.23;3.30;;;17.40;99.90;;;;;;5094274;28;20494;-74
2022/10/21 11:30:13;;;;;;;4.60;2.97;;;17.50;99.90;;;;;;5090862;28;20513;-75
2022/10/21 11:33:03;;;;;;;6.03;3.20;;;17.50;99.90;;;;;;5078632;28;20441;-75
2022/10/21 11:36:07;;;;;;;6.17;3.07;;;17.70;99.90;;;;;;5089804;28;20421;-77
2022/10/21 11:39:11;;;;;;;7.63;3.63;;;17.80;99.90;;;;;;5079614;28;20430;-75
2022/10/21 11:41:55;;;;;;;5.53;2.77;;;17.80;99.90;;;;;;5051826;28;20497;-75
2022/10/21 11:44:36;;;;;;;4.40;2.73;;;17.80;97.90;;;;;;5086162;28;20809;-74
2022/10/21 11:47:29;;;;;;;4.90;3.10;;;17.70;96.90;;;;;;5083756;28;20574;-75
2022/10/21 11:50:08;;;;;;;7.70;3.30;;;17.70;99.90;;;;;;5090663;28;20414;-75
2022/10/21 11:52:56;;;;;;;6.30;3.50;;;17.90;99.90;;;;;;5089020;28;20488;-75
2022/10/21 11:55:43;;;;;;;6.40;3.40;;;17.90;99.90;;;;;;5091270;28;20420;-75
2022/10/21 11:58:27;;;;;;;6.53;3.10;;;17.80;98.90;;;;;;5083300;28;20441;-75
2022/10/21 12:01:11;;;;;;;6.47;3.70;;;17.90;99.90;;;;;;5072770;28;20611;-74
2022/10/21 12:03:53;;;;;;;8.77;3.70;;;18.10;99.90;;;;;;5091721;28;20417;-76
2022/10/21 12:06:33;;;;;;;6.60;2.60;;;18.10;93.70;;;;;;5091015;28;20404;-78
2022/10/21 12:09:22;;;;;;;7.53;3.40;;;18.20;94.50;;;;;;5090036;28;20470;-77
2022/10/21 12:11:56;;;;;;;8.00;2.83;;;18.20;91.30;;;;;;5087389;28;20461;-75
2022/10/21 12:14:30;;;;;;;8.63;2.90;;;18.40;90.90;;;;;;5090013;28;20421;-75
2022/10/21 12:16:58;;;;;;;5.87;3.13;;;18.70;73.80;;;;;;5089467;28;20919;-75
2022/10/21 12:19:25;;;;;;;7.73;2.77;;;19.20;72.00;;;;;;5086093;28;20851;-75
2022/10/21 12:21:51;;;;;;;6.70;3.37;;;19.60;46.10;;;;;;5087835;28;20505;-75
2022/10/21 12:24:48;;;;;;;9.33;3.40;;;19.50;46.00;;;;;;5090412;28;20454;-75
2022/10/21 12:27:21;;;;;;;7.63;3.27;;;19.50;37.40;;;;;;5089421;28;20933;-75
2022/10/21 12:29:58;;;;;;;7.17;3.33;;;19.50;35.00;;;;;;5089024;28;20433;-76
2022/10/21 12:32:52;;;;;;;8.83;3.00;;;19.70;46.10;;;;;;5080988;28;20519;-75
2022/10/21 12:35:42;;;;;;;5.80;3.03;;;20.50;26.70;;;;;;5085767;28;20446;-75
2022/10/21 12:38:47;;;;;;;5.87;3.07;;;21.30;11.60;;;;;;5082823;28;20967;-76
2022/10/21 12:41:34;;;;;;;6.47;2.80;;;21.20;1.70;;;;;;5081247;28;20480;-75
2022/10/21 12:44:02;;;;;;;5.93;3.10;;;21.20;1.00;;;;;;5088605;28;20529;-75
2022/10/21 12:46:48;;;;;;;8.10;3.00;;;21.10;3.70;;;;;;5088372;28;20433;-75
2022/10/21 12:49:23;;;;;;;6.23;2.97;;;21.20;1.30;;;;;;5089604;28;20417;-75
2022/10/21 12:51:56;;;;;;;5.70;2.70;;;21.20;1.00;;;;;;5089127;28;20465;-75
2022/10/21 12:54:25;;;;;;;14.83;3.30;;;21.20;1.90;;;;;;5090027;28;20781;-75